createdAt,value
2022-07-26T00:01:31.846Z,101085.03
2022-07-26T00:03:59.927Z,101084.31
2022-07-26T00:06:27.176Z,101086.97
2022-07-26T00:08:53.714Z,101084.81
2022-07-26T00:11:21.021Z,101080.00
2022-07-26T00:13:47.972Z,101074.28
2022-07-26T00:16:14.727Z,101079.41
2022-07-26T00:18:41.622Z,101084.09
2022-07-26T00:21:08.086Z,101084.09
2022-07-26T00:23:35.464Z,101087.09
2022-07-26T00:26:02.164Z,101081.94
2022-07-26T00:28:28.607Z,101079.53
2022-07-26T00:30:55.367Z,101080.38
2022-07-26T00:33:21.988Z,101087.09
2022-07-26T00:35:48.467Z,101074.63
2022-07-26T00:38:15.234Z,101075.81
2022-07-26T00:40:41.889Z,101077.97
2022-07-26T00:43:08.320Z,101075.22
2022-07-26T00:45:34.848Z,101074.00
2022-07-26T00:48:01.484Z,101070.06
2022-07-26T00:50:28.293Z,101072.16
2022-07-26T00:52:55.216Z,101073.88
2022-07-26T00:55:21.811Z,101074.34
2022-07-26T00:57:48.674Z,101074.22
2022-07-26T01:00:21.160Z,101080.72
2022-07-26T01:02:47.949Z,101078.69
2022-07-26T01:05:14.667Z,101074.25
2022-07-26T01:07:41.952Z,101077.03
2022-07-26T01:10:12.371Z,101077.84
2022-07-26T01:12:40.529Z,101079.03
2022-07-26T01:15:08.484Z,101078.44
2022-07-26T01:17:35.026Z,101079.03
2022-07-26T01:20:07.080Z,101074.59
2022-07-26T01:22:33.556Z,101075.44
2022-07-26T01:24:59.997Z,101082.03
2022-07-26T01:27:32.022Z,101076.75
2022-07-26T01:30:00.334Z,101076.41
2022-07-26T01:32:26.940Z,101072.59
2022-07-26T01:34:53.503Z,101073.31
2022-07-26T01:37:19.908Z,101069.69
2022-07-26T01:39:46.433Z,101069.69
2022-07-26T01:42:13.002Z,101073.63
2022-07-26T01:44:40.869Z,101079.03
2022-07-26T01:47:07.793Z,101077.13
2022-07-26T01:49:34.269Z,101076.28
2022-07-26T01:52:00.711Z,101080.72
2022-07-26T01:54:27.379Z,101075.81
2022-07-26T01:56:53.999Z,101076.66
2022-07-26T01:59:20.453Z,101079.28
2022-07-26T02:01:47.103Z,101085.31
2022-07-26T02:04:33.966Z,101077.97
2022-07-26T02:07:00.414Z,101075.59
2022-07-26T02:09:29.973Z,101073.66
2022-07-26T02:12:03.996Z,101080.03
2022-07-26T02:14:30.458Z,101079.06
2022-07-26T02:17:00.261Z,101082.66
2022-07-26T02:19:31.410Z,101086.13
2022-07-26T02:21:58.866Z,101084.81
2022-07-26T02:24:29.725Z,101082.50
2022-07-26T02:26:57.754Z,101088.16
2022-07-26T02:29:25.420Z,101087.81
2022-07-26T02:31:52.672Z,101080.25
2022-07-26T02:34:19.505Z,101088.88
2022-07-26T02:36:46.405Z,101083.00
2022-07-26T02:39:13.867Z,101086.81
2022-07-26T02:41:41.011Z,101090.69
2022-07-26T02:44:08.402Z,101091.72
2022-07-26T02:46:35.528Z,101095.31
2022-07-26T02:49:02.087Z,101088.72
2022-07-26T02:51:28.785Z,101098.91
2022-07-26T02:53:55.266Z,101096.41
2022-07-26T02:56:22.030Z,101100.22
2022-07-26T02:58:48.559Z,101099.16
2022-07-26T03:01:15.072Z,101101.06
2022-07-26T03:03:42.535Z,101097.84
2022-07-26T03:06:11.513Z,101097.75
2022-07-26T03:08:37.982Z,101101.06
2022-07-26T03:11:09.012Z,101097.31
2022-07-26T03:13:38.218Z,101109.88
2022-07-26T03:16:05.108Z,101107.00
2022-07-26T03:18:31.574Z,101110.84
2022-07-26T03:20:58.110Z,101116.88
2022-07-26T03:23:25.083Z,101120.47
2022-07-26T03:25:51.605Z,101119.28
2022-07-26T03:28:19.633Z,101116.78
2022-07-26T03:30:48.410Z,101121.69
2022-07-26T03:33:14.872Z,101118.94
2022-07-26T03:35:41.299Z,101126.97
2022-07-26T03:38:08.340Z,101127.78
2022-07-26T03:40:35.020Z,101129.00
2022-07-26T03:43:01.489Z,101134.19
2022-07-26T03:45:30.085Z,101138.50
2022-07-26T03:47:56.575Z,101141.59
2022-07-26T03:50:23.591Z,101143.78
2022-07-26T03:52:50.158Z,101134.28
2022-07-26T03:55:35.835Z,101135.84
2022-07-26T03:58:19.103Z,101144.28
2022-07-26T04:00:47.030Z,101150.97
2022-07-26T04:03:13.526Z,101151.31
2022-07-26T04:05:40.547Z,101148.78
2022-07-26T04:08:15.394Z,101153.47
2022-07-26T04:10:46.369Z,101149.38
2022-07-26T04:13:12.976Z,101153.91
2022-07-26T04:15:39.613Z,101156.75
2022-07-26T04:18:06.052Z,101156.69
2022-07-26T04:20:32.594Z,101161.44
2022-07-26T04:22:59.129Z,101161.56
2022-07-26T04:25:25.600Z,101171.25
2022-07-26T04:27:52.128Z,101156.28
2022-07-26T04:30:21.776Z,101168.97
2022-07-26T04:32:48.333Z,101167.53
2022-07-26T04:35:18.604Z,101172.94
2022-07-26T04:37:45.824Z,101180.09
2022-07-26T04:40:21.394Z,101172.03
2022-07-26T04:42:49.674Z,101175.34
2022-07-26T04:45:16.341Z,101174.50
2022-07-26T04:47:45.214Z,101174.50
2022-07-26T04:50:20.446Z,101174.16
2022-07-26T04:52:47.895Z,101172.59
2022-07-26T04:55:20.129Z,101177.84
2022-07-26T04:57:47.818Z,101177.41
2022-07-26T05:00:24.595Z,101181.22
2022-07-26T05:02:53.776Z,101185.63
2022-07-26T05:05:24.930Z,101181.84
2022-07-26T05:08:00.207Z,101193.09
2022-07-26T05:10:35.479Z,101184.97
2022-07-26T05:15:58.811Z,101191.75
2022-07-26T05:18:25.765Z,101189.94
2022-07-26T05:20:52.635Z,101192.38
2022-07-26T05:23:20.758Z,101192.97
2022-07-26T05:25:47.725Z,101187.50
2022-07-26T05:28:14.647Z,101191.47
2022-07-26T05:30:41.204Z,101190.81
2022-07-26T05:33:07.919Z,101186.78
2022-07-26T05:35:34.911Z,101183.78
2022-07-26T05:38:01.508Z,101189.03
2022-07-26T05:43:19.019Z,101192.31
2022-07-26T05:45:45.696Z,101193.53
2022-07-26T05:48:12.230Z,101191.06
2022-07-26T05:50:38.659Z,101185.34
2022-07-26T05:53:05.155Z,101194.13
2022-07-26T05:55:33.870Z,101183.13
2022-07-26T05:58:00.380Z,101185.50
2022-07-26T06:00:26.979Z,101186.47
2022-07-26T06:02:53.620Z,101187.94
2022-07-26T06:05:20.213Z,101194.16
2022-07-26T06:07:47.154Z,101197.63
2022-07-26T06:10:13.730Z,101201.22
2022-07-26T06:12:40.400Z,101203.47
2022-07-26T06:15:15.612Z,101196.97
2022-07-26T06:17:43.270Z,101193.97
2022-07-26T06:20:10.493Z,101195.69
2022-07-26T06:22:37.121Z,101203.69
2022-07-26T06:25:03.893Z,101209.34
2022-07-26T06:27:33.099Z,101211.28
2022-07-26T06:30:04.889Z,101210.81
2022-07-26T06:32:31.438Z,101211.94
2022-07-26T06:35:00.972Z,101210.28
2022-07-26T06:37:27.490Z,101206.19
2022-07-26T06:39:54.158Z,101215.81
2022-07-26T06:42:23.225Z,101215.81
2022-07-26T06:44:52.890Z,101223.28
2022-07-26T06:47:25.185Z,101231.44
2022-07-26T06:49:52.197Z,101230.72
2022-07-26T06:52:18.774Z,101224.72
2022-07-26T06:54:45.414Z,101228.09
2022-07-26T06:57:12.000Z,101231.66
2022-07-26T06:59:38.550Z,101230.78
2022-07-26T07:02:05.550Z,101234.53
2022-07-26T07:04:33.680Z,101240.97
2022-07-26T07:52:42.777Z,101266.09
2022-07-26T07:55:37.078Z,101267.78
2022-07-26T07:57:56.220Z,101267.97
2022-07-26T08:00:27.055Z,101271.16
2022-07-26T08:02:54.351Z,101272.31
2022-07-26T08:05:21.510Z,101260.78
2022-07-26T08:07:48.314Z,101269.88
2022-07-26T08:10:14.867Z,101273.88
2022-07-26T08:12:41.345Z,101269.84
2022-07-26T08:43:46.694Z,101273.16
2022-07-26T08:46:26.575Z,101275.34
2022-07-26T08:48:55.176Z,101278.09
2022-07-26T08:51:24.308Z,101280.13
2022-07-26T08:53:57.873Z,101277.75
2022-07-26T08:56:28.628Z,101283.16
2022-07-26T08:58:55.195Z,101281.34
2022-07-26T09:03:56.797Z,101282.06
2022-07-26T09:06:28.121Z,101292.41
2022-07-26T09:12:15.196Z,101283.63
2022-07-26T09:14:41.806Z,101277.00
2022-07-26T09:17:08.275Z,101281.25
2022-07-26T09:19:35.347Z,101277.16
2022-07-26T09:22:10.896Z,101280.09
2022-07-26T09:24:44.707Z,101280.25
2022-07-26T09:27:14.254Z,101282.72
2022-07-26T09:29:48.277Z,101280.53
2022-07-26T09:32:20.211Z,101280.91
2022-07-26T09:34:53.176Z,101276.19
2022-07-26T09:37:34.111Z,101276.09
2022-07-26T09:40:02.784Z,101274.84
2022-07-26T09:42:30.010Z,101277.22
2022-07-26T09:44:58.354Z,101274.72
2022-07-26T09:47:39.533Z,101276.41
2022-07-26T09:50:16.278Z,101278.34
2022-07-26T09:53:08.771Z,101278.75
2022-07-26T09:55:45.169Z,101286.72
2022-07-26T09:58:13.962Z,101283.94
2022-07-26T10:00:41.465Z,101284.78
2022-07-26T10:03:08.066Z,101301.50
2022-07-26T10:05:35.879Z,101307.28
2022-07-26T10:08:03.147Z,101313.22
2022-07-26T10:11:02.508Z,101316.63
2022-07-26T10:13:30.355Z,101311.72
2022-07-26T10:15:57.071Z,101326.31
2022-07-26T10:18:36.278Z,101336.41
2022-07-26T10:21:30.701Z,101340.19
2022-07-26T10:24:02.195Z,101339.00
2022-07-26T10:26:31.571Z,101349.56
2022-07-26T10:29:16.365Z,101344.78
2022-07-26T10:31:46.017Z,101347.19
2022-07-26T10:34:33.698Z,101357.50
2022-07-26T10:37:03.079Z,101368.81
2022-07-26T10:39:29.667Z,101375.53
2022-07-26T10:42:05.073Z,101388.50
2022-07-26T10:44:33.724Z,101377.44
2022-07-26T10:47:07.854Z,101385.84
2022-07-26T10:49:37.330Z,101381.69
2022-07-26T10:52:10.773Z,101391.00
2022-07-26T10:54:58.954Z,101384.56
2022-07-26T10:57:42.404Z,101390.19
2022-07-26T11:00:26.624Z,101389.19
2022-07-26T11:02:56.069Z,101384.19
2022-07-26T11:05:28.799Z,101384.63
2022-07-26T11:07:55.301Z,101393.16
2022-07-26T11:10:27.776Z,101392.28
2022-07-26T11:13:13.966Z,101388.72
2022-07-26T11:15:51.601Z,101390.28
2022-07-26T11:18:30.745Z,101390.72
2022-07-26T11:21:09.805Z,101389.53
2022-07-26T11:23:38.166Z,101393.41
2022-07-26T11:26:24.860Z,101403.41
2022-07-26T11:28:55.253Z,101399.91
2022-07-26T11:31:51.155Z,101411.13
2022-07-26T11:34:33.111Z,101416.13
2022-07-26T11:37:02.292Z,101405.50
2022-07-26T11:39:34.623Z,101411.47
2022-07-26T11:42:08.071Z,101413.78
2022-07-26T11:44:35.832Z,101406.22
2022-07-26T11:47:13.511Z,101411.00
2022-07-26T11:50:00.262Z,101405.53
2022-07-26T11:52:31.458Z,101401.00
2022-07-26T11:54:58.264Z,101397.69
2022-07-26T11:57:32.168Z,101400.47
2022-07-26T12:00:01.049Z,101402.75
2022-07-26T12:02:29.140Z,101401.16
2022-07-26T12:05:14.786Z,101408.44
2022-07-26T12:07:58.890Z,101405.22
2022-07-26T12:10:26.351Z,101405.72
2022-07-26T12:13:13.404Z,101406.34
2022-07-26T12:15:46.936Z,101409.34
2022-07-26T12:18:31.154Z,101409.09
2022-07-26T12:21:09.122Z,101410.22
2022-07-26T12:23:48.173Z,101420.19
2022-07-26T12:26:19.688Z,101423.88
2022-07-26T12:28:46.140Z,101413.69
2022-07-26T12:31:32.911Z,101421.41
2022-07-26T12:33:59.921Z,101419.25
2022-07-26T12:36:29.516Z,101418.66
2022-07-26T12:39:00.764Z,101418.31
2022-07-26T12:41:36.586Z,101411.59
2022-07-26T12:44:08.514Z,101408.94
2022-07-26T12:46:36.233Z,101409.16
2022-07-26T12:49:04.538Z,101399.28
2022-07-26T12:51:31.222Z,101400.47
2022-07-26T12:53:57.894Z,101400.41
2022-07-26T12:56:24.372Z,101399.03
2022-07-26T12:58:51.111Z,101393.91
2022-07-26T13:01:17.680Z,101393.00
2022-07-26T13:03:44.367Z,101389.75
2022-07-26T13:06:11.075Z,101392.56
2022-07-26T13:08:37.776Z,101385.91
2022-07-26T13:11:04.255Z,101392.31
2022-07-26T13:13:30.997Z,101384.97
2022-07-26T13:15:57.510Z,101389.84
2022-07-26T13:18:24.035Z,101386.69
2022-07-26T13:20:50.488Z,101385.53
2022-07-26T13:23:21.422Z,101398.56
2022-07-26T13:25:49.730Z,101394.50
2022-07-26T13:28:17.288Z,101402.78
2022-07-26T13:30:45.122Z,101397.53
2022-07-26T13:33:12.127Z,101398.88
2022-07-26T13:35:41.101Z,101391.91
2022-07-26T13:38:08.936Z,101393.72
2022-07-26T13:40:36.129Z,101395.81
2022-07-26T13:43:03.905Z,101398.16
2022-07-26T13:45:30.382Z,101396.44
2022-07-26T13:47:59.988Z,101401.44
2022-07-26T13:50:27.922Z,101397.59
2022-07-26T13:52:57.571Z,101406.88
2022-07-26T13:55:25.636Z,101398.22
2022-07-26T13:57:55.466Z,101411.34
2022-07-26T14:00:24.832Z,101412.78
2022-07-26T14:02:51.488Z,101422.84
2022-07-26T14:05:18.438Z,101429.00
2022-07-26T14:07:44.934Z,101430.31
2022-07-26T14:10:11.778Z,101432.94
2022-07-26T14:12:38.311Z,101438.94
2022-07-26T14:15:11.245Z,101446.38
2022-07-26T14:17:39.844Z,101447.56
2022-07-26T14:20:07.066Z,101448.88
2022-07-26T14:22:33.838Z,101446.44
2022-07-26T14:25:00.573Z,101444.63
2022-07-26T14:27:27.340Z,101443.22
2022-07-26T14:29:54.272Z,101441.94
2022-07-26T14:32:21.974Z,101450.59
2022-07-26T14:34:49.768Z,101452.28
2022-07-26T14:37:42.566Z,101453.59
2022-07-26T14:40:05.844Z,101454.53
2022-07-26T14:42:32.482Z,101455.00
2022-07-26T14:44:59.017Z,101452.09
2022-07-26T14:47:25.491Z,101453.59
2022-07-26T14:49:52.085Z,101466.16
2022-07-26T14:52:18.861Z,101450.16
2022-07-26T14:54:45.307Z,101458.31
2022-07-26T15:40:00.219Z,101468.03
2022-07-26T15:42:26.963Z,101464.22
2022-07-26T15:44:54.507Z,101463.75
2022-07-26T15:47:51.230Z,101471.81
2022-07-26T15:50:10.458Z,101482.28
2022-07-26T15:52:39.413Z,101469.25
2022-07-26T15:55:07.029Z,101466.53
2022-07-26T15:57:33.571Z,101470.38
2022-07-26T16:02:51.954Z,101471.09
2022-07-26T16:05:18.939Z,101471.56
2022-07-26T16:07:46.130Z,101474.06
2022-07-26T16:10:14.307Z,101471.25
2022-07-26T16:12:41.450Z,101468.50
2022-07-26T16:15:09.951Z,101465.75
2022-07-26T16:17:36.487Z,101463.81
2022-07-26T16:20:04.056Z,101468.34
2022-07-26T16:22:31.697Z,101465.69
2022-07-26T16:24:58.396Z,101470.03
2022-07-26T16:27:24.856Z,101469.19
2022-07-26T16:29:52.489Z,101461.53
2022-07-26T16:32:20.975Z,101457.09
2022-07-26T16:34:47.519Z,101462.44
2022-07-26T16:37:14.171Z,101465.97
2022-07-26T16:39:40.672Z,101471.41
2022-07-26T16:42:07.591Z,101465.50
2022-07-26T16:44:36.017Z,101462.81
2022-07-26T16:47:02.800Z,101468.78
2022-07-26T16:49:29.432Z,101463.28
2022-07-26T16:51:57.457Z,101462.38
2022-07-26T16:54:24.632Z,101458.09
2022-07-26T16:56:51.230Z,101461.25
2022-07-26T16:59:18.243Z,101463.06
2022-07-26T17:01:45.061Z,101464.84
2022-07-26T17:04:12.060Z,101468.34
2022-07-26T17:06:38.629Z,101474.72
2022-07-26T17:09:05.212Z,101469.34
2022-07-26T17:11:31.762Z,101472.50
2022-07-26T17:13:59.579Z,101478.81
2022-07-26T17:16:26.448Z,101471.66
2022-07-26T17:18:55.824Z,101468.09
2022-07-26T17:21:22.808Z,101473.50
2022-07-26T17:23:50.330Z,101471.84
2022-07-26T17:26:18.488Z,101470.94
2022-07-26T17:28:45.248Z,101474.66
2022-07-26T17:31:11.812Z,101479.22
2022-07-26T17:33:38.565Z,101479.41
2022-07-26T17:36:25.524Z,101481.41
2022-07-26T17:38:52.682Z,101490.25
2022-07-26T17:41:21.771Z,101492.69
2022-07-26T17:43:48.457Z,101485.72
2022-07-26T17:46:16.151Z,101488.78
2022-07-26T17:48:45.406Z,101490.16
2022-07-26T17:51:11.964Z,101491.63
2022-07-26T18:39:17.402Z,101512.50
2022-07-26T18:41:43.874Z,101507.00
2022-07-26T18:44:10.375Z,101507.44
2022-07-26T18:46:39.166Z,101504.28
2022-07-26T18:49:05.686Z,101497.53
2022-07-26T18:51:33.671Z,101500.91
2022-07-26T18:54:00.728Z,101505.84
2022-07-26T18:56:27.393Z,101505.31
2022-07-26T18:58:53.904Z,101505.09
2022-07-26T19:09:58.135Z,101523.25
2022-07-26T19:12:25.944Z,101509.94
2022-07-26T19:14:52.461Z,101515.41
2022-07-26T19:17:19.528Z,101522.03
2022-07-26T19:19:45.952Z,101528.84
2022-07-26T19:22:12.409Z,101521.16
2022-07-26T19:24:38.893Z,101522.31
2022-07-26T19:27:05.416Z,101532.06
2022-07-26T19:29:31.923Z,101537.34
2022-07-26T19:31:58.383Z,101544.31
2022-07-26T19:34:26.641Z,101542.81
2022-07-26T19:36:53.226Z,101544.47
2022-07-26T19:39:20.628Z,101544.69
2022-07-26T19:41:49.916Z,101547.22
2022-07-26T19:44:17.178Z,101548.81
2022-07-26T19:46:44.475Z,101553.78
2022-07-26T19:49:12.693Z,101555.75
2022-07-26T19:51:39.610Z,101553.31
2022-07-26T19:54:06.094Z,101550.13
2022-07-26T19:56:32.549Z,101559.38
2022-07-26T19:59:02.201Z,101574.41
2022-07-26T20:01:29.244Z,101560.41
2022-07-26T20:03:56.587Z,101559.19
2022-07-26T20:06:23.747Z,101566.31
2022-07-26T20:08:50.712Z,101575.53
2022-07-26T20:11:19.781Z,101575.53
2022-07-26T20:13:46.880Z,101570.00
2022-07-26T20:16:13.511Z,101576.88
2022-07-26T20:18:39.967Z,101572.56
2022-07-26T20:21:06.602Z,101582.53
2022-07-26T20:23:33.876Z,101582.97
2022-07-26T20:26:01.296Z,101577.81
2022-07-26T20:28:27.754Z,101577.81
2022-07-26T20:30:55.025Z,101580.66
2022-07-26T20:33:21.912Z,101582.66
2022-07-26T20:35:52.905Z,101592.69
2022-07-26T20:38:21.358Z,101606.31
2022-07-26T20:40:47.881Z,101597.94
2022-07-26T20:43:14.538Z,101603.94
2022-07-26T20:45:41.104Z,101600.06
2022-07-26T20:48:07.696Z,101613.22
2022-07-26T20:50:34.877Z,101607.22
2022-07-26T20:53:01.355Z,101607.00
2022-07-26T20:55:27.924Z,101603.84
2022-07-26T20:57:54.548Z,101605.88
2022-07-26T21:00:21.069Z,101610.28
2022-07-26T21:05:15.085Z,101623.69
2022-07-26T21:07:55.092Z,101630.97
2022-07-26T21:10:26.888Z,101626.84
2022-07-26T21:12:54.576Z,101625.16
2022-07-26T21:15:21.184Z,101632.00
2022-07-26T21:17:47.755Z,101631.66
2022-07-26T21:20:14.523Z,101633.84
2022-07-26T21:22:41.007Z,101642.75
2022-07-26T21:25:07.958Z,101633.25
2022-07-26T21:27:34.485Z,101638.59
2022-07-26T21:30:01.067Z,101644.69
2022-07-26T21:32:31.579Z,101646.56
2022-07-26T21:34:58.755Z,101639.97
2022-07-26T21:37:25.469Z,101642.19
2022-07-26T21:39:52.278Z,101650.31
2022-07-26T21:42:18.960Z,101649.56
2022-07-26T21:44:45.620Z,101656.59
2022-07-26T21:47:12.267Z,101653.53
2022-07-26T21:49:38.736Z,101655.59
2022-07-26T21:52:05.591Z,101673.88
2022-07-26T21:54:32.091Z,101657.09
2022-07-26T21:56:59.335Z,101663.50
2022-07-26T21:59:25.906Z,101665.53
2022-07-26T22:01:52.745Z,101666.38
2022-07-26T22:04:19.318Z,101668.09
2022-07-26T22:06:45.833Z,101674.50
2022-07-26T22:09:12.744Z,101664.09
2022-07-26T22:11:39.876Z,101673.66
2022-07-26T22:14:08.227Z,101669.91
2022-07-26T22:16:35.437Z,101671.97
2022-07-26T22:19:02.637Z,101676.50
2022-07-26T22:21:29.298Z,101677.53
2022-07-26T22:23:55.830Z,101680.38
2022-07-26T22:26:26.240Z,101676.16
2022-07-26T22:28:53.298Z,101676.31
2022-07-26T22:31:19.859Z,101680.88
2022-07-26T22:33:46.458Z,101676.56
2022-07-26T22:36:13.017Z,101682.22
2022-07-26T22:38:39.767Z,101683.91
2022-07-26T22:41:06.599Z,101681.22
2022-07-26T22:43:33.123Z,101685.59
2022-07-26T22:45:59.603Z,101678.72
2022-07-26T22:48:26.160Z,101675.19
2022-07-26T22:50:52.626Z,101677.81
2022-07-26T22:53:19.219Z,101681.13
2022-07-26T22:55:45.798Z,101676.81
2022-07-26T22:58:12.891Z,101676.06
2022-07-26T23:00:39.499Z,101685.16
2022-07-26T23:03:11.838Z,101679.00
2022-07-26T23:05:47.560Z,101684.06
2022-07-26T23:11:02.222Z,101687.63
2022-07-26T23:13:29.307Z,101686.84
2022-07-26T23:16:00.484Z,101687.94
2022-07-26T23:18:28.999Z,101687.00
2022-07-26T23:20:55.815Z,101683.94
2022-07-26T23:23:22.506Z,101678.78
2022-07-26T23:25:56.421Z,101682.16
2022-07-26T23:28:35.685Z,101682.31
2022-07-26T23:31:05.486Z,101685.16
2022-07-26T23:33:50.418Z,101684.53
2022-07-26T23:36:18.837Z,101684.25
2022-07-26T23:38:45.412Z,101684.56
2022-07-26T23:41:11.962Z,101680.38
2022-07-26T23:43:38.450Z,101673.91
2022-07-26T23:46:05.089Z,101672.88
2022-07-26T23:48:31.781Z,101677.38
2022-07-26T23:50:58.419Z,101677.38
2022-07-26T23:53:26.796Z,101681.94
2022-07-26T23:55:54.098Z,101677.44
2022-07-26T23:58:20.781Z,101681.47
